Time;durP1;ratioP1;P1;durP2;ratioP2;P2;SDS_P1;SDS_P2;PMS_P1;PMS_P2;Temp;Humidity;BMP_temperature;BMP_pressure;BME280_temperature;BME280_humidity;BME280_pressure;Samples;Min_cycle;Max_cycle;Signal;HPM_P1;HPM_P2
2023/01/14 00:02:27;;;;;;;1.75;1.00;;;18.90;82.70;;;;;;5030492;28;20256;-61
2023/01/14 00:05:16;;;;;;;0.80;0.80;;;18.90;82.80;;;;;;5030542;28;20205;-61
2023/01/14 00:08:05;;;;;;;1.13;0.82;;;19.00;82.80;;;;;;5031341;28;20213;-60
2023/01/14 00:10:53;;;;;;;3.53;1.00;;;19.10;82.90;;;;;;5030213;28;20314;-60
2023/01/14 00:13:42;;;;;;;2.15;0.80;;;19.10;82.80;;;;;;5031192;28;20202;-59
2023/01/14 00:16:30;;;;;;;3.95;1.05;;;19.10;82.50;;;;;;5031181;28;20212;-59
2023/01/14 00:19:19;;;;;;;1.45;0.80;;;19.10;82.40;;;;;;5031305;28;20218;-59
2023/01/14 00:22:08;;;;;;;1.35;0.90;;;19.20;82.30;;;;;;5031756;28;20285;-58
2023/01/14 00:24:56;;;;;;;1.25;0.93;;;19.30;82.30;;;;;;5030562;28;20214;-60
2023/01/14 00:27:44;;;;;;;2.42;0.80;;;19.30;82.10;;;;;;5032221;28;20198;-58
2023/01/14 00:30:32;;;;;;;2.80;1.15;;;19.30;82.00;;;;;;5031815;28;20308;-59
2023/01/14 00:33:20;;;;;;;1.27;0.90;;;19.30;81.70;;;;;;5031828;28;20204;-59
2023/01/14 00:36:12;;;;;;;0.90;0.80;;;19.40;81.70;;;;;;5031670;28;20208;-62
2023/01/14 00:39:01;;;;;;;0.77;0.70;;;19.40;81.40;;;;;;5031864;28;20296;-59
2023/01/14 00:41:50;;;;;;;3.53;0.95;;;19.40;81.30;;;;;;5032088;28;20212;-59
2023/01/14 00:44:38;;;;;;;1.90;0.80;;;19.40;79.90;;;;;;5033376;28;20258;-59
2023/01/14 00:47:26;;;;;;;5.43;1.50;;;19.30;79.70;;;;;;5032111;28;20204;-58
2023/01/14 00:50:14;;;;;;;1.50;0.93;;;19.30;80.20;;;;;;5031431;28;20241;-59
2023/01/14 00:53:02;;;;;;;3.17;0.77;;;19.30;80.00;;;;;;5032201;28;20579;-59
2023/01/14 00:55:51;;;;;;;1.17;0.90;;;19.30;79.50;;;;;;5032281;28;20639;-59
2023/01/14 00:58:39;;;;;;;0.98;0.70;;;19.40;94.50;;;;;;5031372;28;20200;-59
2023/01/14 01:01:27;;;;;;;0.70;0.70;;;19.20;79.50;;;;;;5031382;28;20206;-60
2023/01/14 01:04:17;;;;;;;2.08;0.70;;;19.20;80.70;;;;;;5036296;28;20218;-60
2023/01/14 01:07:06;;;;;;;2.17;0.80;;;19.20;81.10;;;;;;5034650;28;20337;-59
2023/01/14 01:09:54;;;;;;;2.20;0.90;;;19.10;81.20;;;;;;5034269;28;20305;-60
2023/01/14 01:12:43;;;;;;;3.90;0.80;;;19.00;81.20;;;;;;5034200;28;20202;-60
2023/01/14 01:15:33;;;;;;;1.98;0.80;;;19.00;81.90;;;;;;5034348;28;20198;-59
2023/01/14 01:18:21;;;;;;;1.38;1.00;;;19.00;82.30;;;;;;5033527;28;20695;-60
2023/01/14 01:21:11;;;;;;;3.00;0.95;;;19.00;82.40;;;;;;5033743;28;20202;-61
2023/01/14 01:23:59;;;;;;;0.70;0.70;;;18.90;82.50;;;;;;5034059;28;20308;-61
2023/01/14 01:26:48;;;;;;;0.88;0.60;;;18.90;82.50;;;;;;5033550;28;20277;-59
2023/01/14 01:29:37;;;;;;;1.35;0.80;;;19.00;82.70;;;;;;5033357;28;20226;-61
2023/01/14 01:32:26;;;;;;;3.53;0.90;;;19.00;82.70;;;;;;5033307;28;20281;-60
2023/01/14 01:35:14;;;;;;;0.85;0.75;;;19.00;82.70;;;;;;5033787;28;20569;-60
2023/01/14 01:38:02;;;;;;;1.33;0.70;;;19.00;82.40;;;;;;5033729;28;20202;-59
2023/01/14 01:40:50;;;;;;;1.23;0.70;;;19.10;82.50;;;;;;5033563;28;20285;-60
2023/01/14 01:44:01;;;;;;;1.80;0.70;;;19.10;82.30;;;;;;5033229;28;20720;-60
2023/01/14 01:46:50;;;;;;;3.60;0.77;;;19.10;82.20;;;;;;5033487;28;20198;-59
2023/01/14 01:49:38;;;;;;;1.08;0.80;;;19.10;82.20;;;;;;5034015;28;20230;-60
2023/01/14 01:52:29;;;;;;;0.93;0.70;;;19.20;82.10;;;;;;5034332;28;20281;-59
2023/01/14 01:55:19;;;;;;;1.40;0.80;;;19.10;82.10;;;;;;5035601;28;20208;-60
2023/01/14 01:58:09;;;;;;;1.33;0.85;;;19.10;81.80;;;;;;5034385;28;20198;-58
2023/01/14 02:00:58;;;;;;;1.10;1.00;;;19.20;80.70;;;;;;5034169;28;20204;-59
2023/01/14 02:03:49;;;;;;;1.35;0.70;;;19.20;81.50;;;;;;5034366;28;20571;-60
2023/01/14 02:06:37;;;;;;;1.48;1.30;;;19.20;81.70;;;;;;5034263;28;20204;-59
2023/01/14 02:09:26;;;;;;;0.85;0.80;;;19.30;81.60;;;;;;5033841;28;20232;-58
2023/01/14 02:12:26;;;;;;;0.90;0.80;;;19.30;81.70;;;;;;5034207;28;20209;-59
2023/01/14 02:15:28;;;;;;;1.73;0.95;;;19.20;81.50;;;;;;5034344;28;20212;-58
2023/01/14 02:18:29;;;;;;;1.35;0.90;;;19.20;81.50;;;;;;5034965;28;20194;-59
2023/01/14 02:21:21;;;;;;;1.35;0.80;;;19.20;81.00;;;;;;5034027;28;20581;-59
2023/01/14 02:24:49;;;;;;;0.98;0.82;;;19.20;81.70;;;;;;5032617;28;20227;-59
2023/01/14 02:27:48;;;;;;;0.88;0.88;;;19.10;81.50;;;;;;5033458;28;20285;-60
2023/01/14 02:30:48;;;;;;;1.63;0.77;;;19.10;80.80;;;;;;5032503;28;20233;-59
2023/01/14 02:33:45;;;;;;;1.05;1.05;;;19.00;80.20;;;;;;5029425;28;20198;-60
2023/01/14 02:36:39;;;;;;;0.85;0.85;;;19.10;80.50;;;;;;5025610;28;20629;-59
2023/01/14 02:39:36;;;;;;;3.45;0.90;;;18.90;81.30;;;;;;5031883;28;20291;-60
2023/01/14 02:45:37;;;;;;;2.05;0.85;;;18.80;82.50;;;;;;5032251;28;20264;-63
2023/01/14 02:48:29;;;;;;;0.70;0.60;;;18.90;82.60;;;;;;5031798;28;20221;-64
2023/01/14 02:51:18;;;;;;;0.73;0.73;;;18.80;82.50;;;;;;5031455;28;20284;-61
2023/01/14 02:54:06;;;;;;;1.13;0.82;;;19.00;82.70;;;;;;5031649;28;20226;-62
2023/01/14 02:57:00;;;;;;;2.63;1.08;;;19.00;82.60;;;;;;5032220;28;20656;-59
2023/01/14 02:59:53;;;;;;;2.42;0.80;;;19.00;82.40;;;;;;5031120;28;20218;-61
2023/01/14 03:03:02;;;;;;;2.90;0.98;;;19.30;82.50;;;;;;5031447;28;20229;-59
2023/01/14 03:06:11;;;;;;;1.40;0.70;;;19.30;82.20;;;;;;5012641;28;20305;-61
2023/01/14 03:09:04;;;;;;;1.27;0.60;;;19.30;82.00;;;;;;5013805;28;20600;-60
2023/01/14 03:11:56;;;;;;;2.95;0.80;;;19.40;82.00;;;;;;5013508;28;20259;-59
2023/01/14 03:14:49;;;;;;;1.15;0.80;;;19.40;81.70;;;;;;5012678;28;20229;-59
2023/01/14 03:17:44;;;;;;;1.10;0.80;;;19.50;81.70;;;;;;5013162;28;20250;-59
2023/01/14 03:20:35;;;;;;;0.90;0.70;;;19.50;81.70;;;;;;5014183;28;20262;-59
2023/01/14 03:23:28;;;;;;;1.13;0.70;;;19.50;81.40;;;;;;5014343;28;20676;-58
2023/01/14 03:26:16;;;;;;;2.85;0.77;;;19.30;81.20;;;;;;5013592;28;20223;-59
2023/01/14 03:29:11;;;;;;;2.55;0.90;;;19.50;81.30;;;;;;5012988;28;20276;-59
2023/01/14 03:32:04;;;;;;;1.42;0.70;;;19.50;81.20;;;;;;5014237;28;20329;-58
2023/01/14 03:35:02;;;;;;;3.45;0.90;;;19.50;81.20;;;;;;5014337;28;20698;-59
2023/01/14 03:37:53;;;;;;;1.02;0.90;;;19.50;81.10;;;;;;5014177;28;20261;-59
2023/01/14 03:40:45;;;;;;;1.45;0.70;;;19.50;80.90;;;;;;5013967;28;20718;-59
2023/01/14 03:43:38;;;;;;;0.70;0.70;;;19.50;80.30;;;;;;5012603;28;20278;-59
2023/01/14 03:46:26;;;;;;;1.98;0.88;;;19.50;81.00;;;;;;5013756;28;20230;-59
2023/01/14 03:49:14;;;;;;;0.80;0.80;;;19.40;81.00;;;;;;5012462;28;20333;-59
2023/01/14 03:52:11;;;;;;;1.35;0.70;;;19.40;81.10;;;;;;5012821;28;20282;-60
2023/01/14 03:55:05;;;;;;;2.60;1.20;;;19.40;81.20;;;;;;5012078;28;20202;-59
2023/01/14 03:58:02;;;;;;;0.80;0.80;;;19.40;81.20;;;;;;5012651;28;20267;-59
2023/01/14 04:00:55;;;;;;;0.80;0.80;;;19.30;81.20;;;;;;5012652;28;20813;-58
2023/01/14 04:03:44;;;;;;;0.93;0.70;;;19.30;80.50;;;;;;5018923;28;20672;-59
2023/01/14 04:06:33;;;;;;;1.42;0.70;;;19.40;81.00;;;;;;5031796;28;20229;-59
2023/01/14 04:09:21;;;;;;;1.08;0.98;;;19.20;80.50;;;;;;5031332;28;20218;-60
2023/01/14 04:12:09;;;;;;;0.95;0.90;;;19.10;80.10;;;;;;5032017;28;20198;-60
2023/01/14 04:18:04;;;;;;;2.13;0.90;;;19.10;80.40;;;;;;5032086;28;20284;-60
2023/01/14 04:20:52;;;;;;;1.30;0.70;;;19.00;80.50;;;;;;5031038;28;20711;-59
2023/01/14 04:23:40;;;;;;;0.80;0.80;;;19.00;81.10;;;;;;5031033;28;20280;-63
2023/01/14 04:26:28;;;;;;;1.73;0.80;;;18.90;82.30;;;;;;5030958;28;20265;-62
2023/01/14 04:29:16;;;;;;;0.80;0.80;;;18.90;82.50;;;;;;5030647;28;20300;-65
2023/01/14 04:32:06;;;;;;;0.77;0.70;;;18.70;82.30;;;;;;5031101;28;20695;-64
2023/01/14 04:34:54;;;;;;;2.13;1.00;;;18.80;82.40;;;;;;5030275;28;20276;-63
2023/01/14 04:37:42;;;;;;;0.77;0.60;;;19.10;82.70;;;;;;5034044;28;20329;-61
2023/01/14 04:40:30;;;;;;;1.75;0.70;;;19.10;82.50;;;;;;5033654;28;20218;-65
2023/01/14 04:43:18;;;;;;;0.90;0.75;;;19.10;82.30;;;;;;5033811;28;20228;-59
2023/01/14 04:46:06;;;;;;;0.80;0.80;;;19.30;82.20;;;;;;5034896;28;20217;-60
2023/01/14 04:48:55;;;;;;;0.88;0.70;;;19.40;82.10;;;;;;5034713;28;20221;-60
2023/01/14 04:51:43;;;;;;;0.80;0.77;;;19.40;81.90;;;;;;5035066;28;20284;-60
2023/01/14 04:54:31;;;;;;;2.95;0.77;;;19.30;81.60;;;;;;5035181;28;20257;-59
2023/01/14 04:57:22;;;;;;;2.30;0.85;;;19.50;81.60;;;;;;5035269;28;20206;-59
2023/01/14 05:00:11;;;;;;;2.15;0.70;;;19.50;81.40;;;;;;5035287;28;20229;-60
2023/01/14 05:03:02;;;;;;;1.77;1.00;;;19.50;81.20;;;;;;5035071;28;20235;-59
2023/01/14 05:05:51;;;;;;;2.83;0.77;;;19.60;81.30;;;;;;5036510;28;20643;-58
2023/01/14 05:08:39;;;;;;;0.95;0.70;;;19.60;94.30;;;;;;5034771;28;20363;-59
2023/01/14 05:11:27;;;;;;;1.55;0.80;;;19.50;81.10;;;;;;5035458;28;20233;-59
2023/01/14 05:14:15;;;;;;;1.73;0.73;;;19.60;81.00;;;;;;5035449;28;20718;-57
2023/01/14 05:17:03;;;;;;;1.23;0.80;;;19.60;80.90;;;;;;5034721;28;20643;-57
2023/01/14 05:19:51;;;;;;;3.17;0.82;;;19.60;80.90;;;;;;5034788;28;20261;-59
2023/01/14 05:22:40;;;;;;;0.80;0.68;;;19.60;80.80;;;;;;5035344;28;20581;-58
2023/01/14 05:25:30;;;;;;;1.23;0.80;;;19.60;80.80;;;;;;5034799;28;20304;-58
2023/01/14 05:28:19;;;;;;;1.13;0.80;;;19.60;80.80;;;;;;5035277;28;20299;-59
2023/01/14 05:31:08;;;;;;;0.90;0.70;;;19.50;80.30;;;;;;5034727;28;20241;-59
2023/01/14 05:33:57;;;;;;;0.70;0.70;;;19.60;80.80;;;;;;5035332;28;20202;-57
2023/01/14 05:36:45;;;;;;;1.80;0.90;;;19.40;80.70;;;;;;5035230;28;20597;-60
2023/01/14 05:39:34;;;;;;;1.77;0.70;;;19.40;80.80;;;;;;5034186;28;20705;-59
2023/01/14 05:45:47;;;;;;;1.42;0.90;;;19.40;80.90;;;;;;5035723;28;20340;-60
2023/01/14 05:48:36;;;;;;;0.80;0.70;;;19.30;92.80;;;;;;5033764;28;20201;-59
2023/01/14 05:51:24;;;;;;;0.60;0.60;;;19.30;81.00;;;;;;5034445;28;20229;-58
2023/01/14 05:54:12;;;;;;;0.95;0.80;;;19.20;80.80;;;;;;5033867;28;20202;-59
2023/01/14 05:57:01;;;;;;;1.25;0.80;;;19.30;81.00;;;;;;5035594;28;20744;-59
2023/01/14 05:59:49;;;;;;;1.60;1.00;;;19.20;81.10;;;;;;5033802;28;20253;-59
2023/01/14 06:08:49;;;;;;;0.90;0.70;;;18.90;95.80;;;;;;5013242;28;20761;-60
2023/01/14 06:11:39;;;;;;;0.80;0.60;;;18.90;81.80;;;;;;5013646;28;20281;-63
2023/01/14 06:14:29;;;;;;;1.10;0.70;;;18.90;82.10;;;;;;5013099;28;20225;-60
2023/01/14 06:17:21;;;;;;;3.22;0.70;;;18.70;81.90;;;;;;5013357;28;20301;-61
2023/01/14 06:20:10;;;;;;;1.15;0.70;;;18.90;82.20;;;;;;5013378;28;20711;-60
2023/01/14 06:22:58;;;;;;;1.08;0.90;;;18.90;82.20;;;;;;5012966;28;20290;-60
2023/01/14 06:25:48;;;;;;;2.05;0.90;;;18.90;82.20;;;;;;5013052;28;20646;-60
2023/01/14 06:28:36;;;;;;;0.80;0.80;;;18.90;95.40;;;;;;5012323;28;20202;-61
2023/01/14 06:31:26;;;;;;;0.82;0.70;;;18.90;82.10;;;;;;5012767;28;20202;-60
2023/01/14 06:34:14;;;;;;;2.33;1.10;;;19.00;82.10;;;;;;5013076;28;20254;-60
2023/01/14 06:37:02;;;;;;;1.35;0.80;;;19.00;82.00;;;;;;5013254;28;20234;-60
2023/01/14 06:39:50;;;;;;;0.70;0.70;;;19.10;82.00;;;;;;5011782;28;20229;-60
2023/01/14 06:42:40;;;;;;;1.50;0.70;;;19.10;82.00;;;;;;5013320;28;20209;-58
2023/01/14 06:45:28;;;;;;;0.90;0.80;;;19.10;81.80;;;;;;5013090;28;20277;-58
2023/01/14 06:48:17;;;;;;;2.65;0.80;;;19.00;81.40;;;;;;5014760;28;20282;-60
2023/01/14 06:51:07;;;;;;;1.00;0.80;;;19.20;81.50;;;;;;5013329;28;20754;-59
2023/01/14 06:53:55;;;;;;;0.82;0.80;;;19.20;81.20;;;;;;5012843;28;20202;-60
2023/01/14 06:56:44;;;;;;;1.98;1.10;;;19.10;81.00;;;;;;5012646;28;20195;-59
2023/01/14 06:59:32;;;;;;;1.77;0.80;;;19.20;80.70;;;;;;5013092;28;20300;-60
2023/01/14 07:02:20;;;;;;;0.80;0.80;;;19.10;80.60;;;;;;5013180;28;20739;-60
2023/01/14 07:05:10;;;;;;;1.20;0.85;;;19.10;80.70;;;;;;5030946;28;20198;-60
2023/01/14 07:07:58;;;;;;;3.63;0.80;;;19.00;80.50;;;;;;5032387;28;20218;-60
2023/01/14 07:10:49;;;;;;;1.00;0.70;;;19.00;80.70;;;;;;5031753;28;20259;-60
2023/01/14 07:13:37;;;;;;;1.40;0.70;;;19.00;81.10;;;;;;5032734;28;20756;-61
2023/01/14 07:16:25;;;;;;;0.80;0.80;;;19.00;82.00;;;;;;5032072;28;20264;-65
2023/01/14 07:19:13;;;;;;;1.85;0.80;;;18.90;82.20;;;;;;5032243;28;20369;-59
2023/01/14 07:22:03;;;;;;;0.90;0.80;;;18.90;82.30;;;;;;5031827;28;20683;-61
2023/01/14 07:24:51;;;;;;;2.30;0.75;;;18.80;82.40;;;;;;5031670;28;20206;-60
2023/01/14 07:27:40;;;;;;;0.95;0.82;;;18.90;83.20;;;;;;5031674;28;20228;-61
2023/01/14 07:30:28;;;;;;;0.93;0.68;;;18.90;82.40;;;;;;5031312;28;20269;-65
2023/01/14 07:33:16;;;;;;;0.93;0.70;;;19.00;82.40;;;;;;5031993;28;20578;-62
2023/01/14 07:36:05;;;;;;;0.80;0.70;;;19.00;82.20;;;;;;5031489;28;20242;-61
2023/01/14 07:38:54;;;;;;;0.75;0.75;;;19.10;82.20;;;;;;5031197;28;20241;-60
2023/01/14 07:41:42;;;;;;;2.90;1.05;;;19.10;82.20;;;;;;5032227;28;20209;-60
2023/01/14 07:44:31;;;;;;;0.70;0.70;;;19.10;82.00;;;;;;5031893;28;20285;-60
2023/01/14 07:47:19;;;;;;;1.95;0.82;;;19.20;82.00;;;;;;5032003;28;20210;-60
2023/01/14 07:50:08;;;;;;;0.70;0.70;;;19.20;81.80;;;;;;5031864;28;20228;-60
2023/01/14 07:52:58;;;;;;;1.35;0.73;;;19.20;81.60;;;;;;5032775;28;20280;-59
2023/01/14 07:55:47;;;;;;;1.05;0.75;;;19.30;81.70;;;;;;5032223;28;20202;-59
2023/01/14 07:58:35;;;;;;;1.25;0.90;;;19.40;92.80;;;;;;5032705;28;20622;-59
2023/01/14 08:01:23;;;;;;;0.70;0.70;;;19.30;81.60;;;;;;5032459;28;20292;-59
2023/01/14 08:04:11;;;;;;;0.95;0.80;;;19.20;81.30;;;;;;5032571;28;20243;-59
2023/01/14 08:06:59;;;;;;;1.88;0.80;;;19.30;81.30;;;;;;5031820;28;20299;-59
2023/01/14 08:09:49;;;;;;;2.08;1.20;;;19.30;81.10;;;;;;5032208;28;20226;-58
2023/01/14 08:12:38;;;;;;;1.52;0.80;;;19.30;80.80;;;;;;5033892;28;20277;-60
2023/01/14 08:15:26;;;;;;;1.70;0.70;;;19.00;80.90;;;;;;5036063;28;20201;-59
2023/01/14 08:18:14;;;;;;;2.05;0.80;;;19.10;81.10;;;;;;5037303;28;20268;-60
2023/01/14 08:21:04;;;;;;;0.90;0.70;;;19.20;81.30;;;;;;5035100;28;20221;-59
2023/01/14 08:23:52;;;;;;;3.22;1.00;;;19.20;81.40;;;;;;5036130;28;20285;-60
2023/01/14 08:26:40;;;;;;;1.02;0.68;;;19.20;81.50;;;;;;5035276;28;20198;-58
2023/01/14 08:29:30;;;;;;;0.88;0.88;;;19.10;81.50;;;;;;5035363;28;20317;-60
2023/01/14 08:32:18;;;;;;;0.70;0.70;;;19.00;81.60;;;;;;5034858;28;20624;-61
2023/01/14 08:35:07;;;;;;;0.80;0.80;;;18.90;81.70;;;;;;5034407;28;20236;-61
2023/01/14 08:37:55;;;;;;;0.70;0.70;;;18.90;81.90;;;;;;5033980;28;20198;-63
2023/01/14 08:40:43;;;;;;;0.95;0.70;;;18.80;82.00;;;;;;5034084;28;20217;-60
2023/01/14 08:43:31;;;;;;;1.27;0.80;;;18.80;82.20;;;;;;5034842;28;20202;-62
2023/01/14 08:46:21;;;;;;;1.35;0.70;;;18.80;82.10;;;;;;5035872;28;20281;-60
2023/01/14 08:49:11;;;;;;;1.08;0.77;;;18.40;81.70;;;;;;5033885;28;20249;-62
2023/01/14 08:51:59;;;;;;;1.33;0.80;;;19.00;82.30;;;;;;5034151;28;20320;-60
2023/01/14 08:54:47;;;;;;;3.10;0.80;;;19.00;82.20;;;;;;5034305;28;20686;-59
2023/01/14 08:57:35;;;;;;;1.83;0.90;;;19.00;82.20;;;;;;5036254;28;20194;-60
2023/01/14 09:00:23;;;;;;;0.70;0.70;;;18.90;82.20;;;;;;5033908;28;20296;-60
2023/01/14 09:03:13;;;;;;;1.70;0.80;;;19.00;82.00;;;;;;5034979;28;20202;-60
2023/01/14 09:06:03;;;;;;;0.93;0.70;;;19.00;81.80;;;;;;5034714;28;20240;-60
2023/01/14 09:18:08;;;;;;;1.52;0.85;;;19.20;81.40;;;;;;5035080;28;20728;-59
2023/01/14 09:20:58;;;;;;;1.10;0.77;;;19.20;81.10;;;;;;5034985;28;20229;-59
2023/01/14 09:23:46;;;;;;;0.80;0.70;;;19.30;81.40;;;;;;5035369;28;20233;-60
2023/01/14 09:26:34;;;;;;;1.65;1.10;;;19.30;81.20;;;;;;5036599;28;20268;-59
2023/01/14 09:29:22;;;;;;;1.05;0.88;;;19.30;81.10;;;;;;5034808;28;20230;-60
2023/01/14 09:32:11;;;;;;;1.73;0.90;;;19.20;80.90;;;;;;5035178;28;20709;-59
2023/01/14 09:34:59;;;;;;;1.50;0.82;;;19.30;81.00;;;;;;5034829;28;20556;-60
2023/01/14 09:37:48;;;;;;;1.90;0.80;;;19.10;80.50;;;;;;5034761;28;20226;-60
2023/01/14 09:40:38;;;;;;;1.85;0.93;;;19.20;80.10;;;;;;5033161;28;20706;-60
2023/01/14 09:43:30;;;;;;;1.25;0.90;;;19.20;80.60;;;;;;5035483;28;20281;-60
2023/01/14 09:46:18;;;;;;;1.20;0.80;;;18.80;80.90;;;;;;5034849;28;20283;-60
2023/01/14 09:49:07;;;;;;;0.82;0.70;;;19.10;81.30;;;;;;5034210;28;20225;-59
2023/01/14 09:52:15;;;;;;;1.42;0.70;;;19.00;81.60;;;;;;5034162;28;20285;-60
2023/01/14 09:55:11;;;;;;;0.68;0.65;;;18.90;81.80;;;;;;5032927;28;20283;-60
2023/01/14 09:58:03;;;;;;;3.78;1.05;;;18.90;81.50;;;;;;5091672;22;20653;-63
2023/01/14 10:01:02;;;;;;;1.48;0.75;;;18.90;82.10;;;;;;5072253;28;20238;-63
2023/01/14 10:03:55;;;;;;;1.25;0.77;;;18.90;82.20;;;;;;5074262;28;20196;-64
2023/01/14 10:06:44;;;;;;;2.03;0.70;;;18.90;82.10;;;;;;5066253;28;20225;-63
2023/01/14 10:09:36;;;;;;;2.20;0.88;;;19.00;82.20;;;;;;5053326;28;20355;-63
2023/01/14 10:12:30;;;;;;;2.33;1.00;;;18.90;82.00;;;;;;5053849;28;20202;-63
2023/01/14 10:15:30;;;;;;;1.40;0.70;;;19.00;81.90;;;;;;5053626;28;20212;-63
2023/01/14 10:18:24;;;;;;;2.13;0.75;;;19.10;81.90;;;;;;5053708;28;20295;-63
2023/01/14 10:21:19;;;;;;;1.60;0.77;;;19.10;81.80;;;;;;5053074;28;20751;-63
2023/01/14 10:24:12;;;;;;;1.83;0.70;;;19.00;81.60;;;;;;5053380;28;20739;-64
2023/01/14 10:27:01;;;;;;;1.67;0.85;;;19.10;81.60;;;;;;5053361;28;20266;-64
2023/01/14 10:29:50;;;;;;;3.88;0.80;;;19.20;81.60;;;;;;5053090;28;20722;-63
2023/01/14 10:32:38;;;;;;;1.75;0.75;;;19.20;81.60;;;;;;5053092;28;20280;-63
2023/01/14 10:35:32;;;;;;;2.15;0.80;;;19.20;81.40;;;;;;5052444;28;20208;-63
2023/01/14 10:38:23;;;;;;;1.00;0.90;;;19.20;81.40;;;;;;5053119;28;20197;-64
2023/01/14 10:41:13;;;;;;;2.42;0.90;;;19.20;81.20;;;;;;5052355;28;20201;-64
2023/01/14 10:44:16;;;;;;;0.93;0.80;;;19.00;81.00;;;;;;5052734;28;20681;-64
2023/01/14 10:47:09;;;;;;;1.27;0.90;;;19.20;81.10;;;;;;5051915;28;20221;-63
2023/01/14 10:50:01;;;;;;;1.35;0.93;;;19.00;80.90;;;;;;5053064;28;20252;-63
2023/01/14 10:52:52;;;;;;;0.80;0.80;;;19.20;81.10;;;;;;5052560;28;20323;-64
2023/01/14 10:55:47;;;;;;;2.17;0.93;;;19.20;81.10;;;;;;5052876;28;20209;-64
2023/01/14 10:58:38;;;;;;;0.70;0.70;;;19.20;81.90;;;;;;5053158;28;20703;-63
2023/01/14 11:01:26;;;;;;;1.33;0.80;;;19.20;81.20;;;;;;5052307;28;20734;-63
2023/01/14 11:04:16;;;;;;;2.65;0.80;;;19.20;81.10;;;;;;5052637;28;20205;-64
2023/01/14 11:07:10;;;;;;;1.92;0.80;;;19.40;81.60;;;;;;5052719;28;20261;-63
2023/01/14 11:10:01;;;;;;;0.98;0.70;;;19.10;82.10;;;;;;5053546;28;20283;-63
2023/01/14 11:12:52;;;;;;;3.10;1.02;;;19.10;81.80;;;;;;5053882;28;20208;-64
2023/01/14 11:15:45;;;;;;;2.65;0.98;;;18.90;81.80;;;;;;5053485;28;20237;-63
2023/01/14 11:18:34;;;;;;;0.85;0.80;;;18.90;81.90;;;;;;5052970;28;20708;-64
2023/01/14 11:21:27;;;;;;;3.15;0.77;;;18.50;81.70;;;;;;5053114;28;20209;-64
2023/01/14 11:24:29;;;;;;;1.05;0.73;;;19.00;82.20;;;;;;5053191;28;20236;-64
2023/01/14 11:27:20;;;;;;;1.80;0.82;;;19.00;81.90;;;;;;5053160;28;20224;-64
2023/01/14 11:30:17;;;;;;;1.55;1.33;;;19.10;82.00;;;;;;5052855;28;20776;-63
2023/01/14 11:33:05;;;;;;;1.75;0.85;;;19.20;81.80;;;;;;5053599;28;20283;-63
2023/01/14 11:35:57;;;;;;;0.82;0.70;;;19.10;94.40;;;;;;5053317;28;20629;-63
2023/01/14 11:38:47;;;;;;;1.02;0.95;;;19.20;81.60;;;;;;5053322;28;20193;-63
2023/01/14 11:41:38;;;;;;;1.55;0.80;;;19.30;81.80;;;;;;5052551;28;20288;-63
2023/01/14 11:44:28;;;;;;;2.35;1.00;;;19.20;81.30;;;;;;5052536;28;20208;-63
2023/01/14 11:47:19;;;;;;;3.33;0.98;;;19.50;81.40;;;;;;5052223;28;20217;-63
2023/01/14 11:50:15;;;;;;;1.50;0.80;;;19.70;81.50;;;;;;5051599;28;20716;-64
2023/01/14 11:53:05;;;;;;;1.77;1.42;;;19.30;81.00;;;;;;5052898;28;20201;-64
2023/01/14 11:55:57;;;;;;;1.73;0.93;;;19.40;93.80;;;;;;5052089;28;20229;-63
2023/01/14 11:58:45;;;;;;;0.98;0.88;;;19.30;81.00;;;;;;5052561;28;20193;-63
2023/01/14 12:01:37;;;;;;;2.35;0.90;;;19.30;80.90;;;;;;5052434;28;20227;-64
2023/01/14 12:04:32;;;;;;;3.75;0.93;;;19.30;80.90;;;;;;5039439;28;20685;-64
2023/01/14 12:07:26;;;;;;;2.15;0.70;;;19.60;92.60;;;;;;5031693;28;20226;-64
2023/01/14 12:10:20;;;;;;;1.38;0.70;;;19.30;80.80;;;;;;5030871;28;20225;-63
2023/01/14 12:19:37;;;;;;;1.33;0.90;;;19.30;80.60;;;;;;5031788;28;20202;-64
2023/01/14 12:22:31;;;;;;;1.00;0.90;;;19.30;80.50;;;;;;5030937;28;20229;-63
2023/01/14 12:25:23;;;;;;;1.70;0.90;;;19.30;80.70;;;;;;5030565;28;20208;-64
2023/01/14 12:28:20;;;;;;;0.98;0.80;;;19.20;80.80;;;;;;5031245;28;20271;-65
2023/01/14 12:31:13;;;;;;;1.58;0.80;;;19.20;80.90;;;;;;5030796;28;20337;-64
2023/01/14 12:34:10;;;;;;;3.10;1.20;;;19.10;81.00;;;;;;5030682;28;20194;-63
2023/01/14 12:37:07;;;;;;;1.48;0.93;;;19.10;81.30;;;;;;5030767;28;20256;-63
2023/01/14 12:46:22;;;;;;;1.10;0.73;;;18.80;81.60;;;;;;5031445;28;20737;-64
2023/01/14 12:49:11;;;;;;;1.17;0.82;;;19.00;81.80;;;;;;5031231;28;20694;-63
2023/01/14 12:52:00;;;;;;;1.25;0.90;;;18.80;81.50;;;;;;5031017;28;20194;-63
2023/01/14 12:54:50;;;;;;;0.80;0.80;;;19.10;81.70;;;;;;5030968;28;20205;-63
2023/01/14 12:57:39;;;;;;;1.30;0.90;;;18.70;81.10;;;;;;5031523;28;20230;-63
2023/01/14 13:00:31;;;;;;;1.20;0.80;;;18.80;81.30;;;;;;5034531;28;20245;-63
2023/01/14 13:03:25;;;;;;;1.52;1.10;;;19.10;81.30;;;;;;5038540;28;20268;-63
2023/01/14 13:06:17;;;;;;;1.33;1.00;;;19.20;81.30;;;;;;5054746;28;20225;-63
2023/01/14 13:09:18;;;;;;;1.02;0.70;;;19.10;81.10;;;;;;5054279;28;20224;-63
2023/01/14 13:12:14;;;;;;;5.28;1.00;;;19.20;81.20;;;;;;5054675;28;20493;-64
2023/01/14 13:15:07;;;;;;;1.75;0.95;;;19.20;81.10;;;;;;5053861;28;20203;-63
2023/01/14 13:17:57;;;;;;;2.15;1.08;;;19.20;80.90;;;;;;5054021;28;20620;-63
2023/01/14 13:20:53;;;;;;;1.17;0.80;;;19.30;81.00;;;;;;5054293;28;20198;-64
2023/01/14 13:24:04;;;;;;;2.88;1.02;;;19.20;80.70;;;;;;5054264;28;20304;-64
2023/01/14 13:26:57;;;;;;;1.40;0.90;;;19.20;80.70;;;;;;5054155;28;20263;-63
2023/01/14 13:29:45;;;;;;;3.35;1.08;;;19.20;80.70;;;;;;5053678;28;20271;-63
2023/01/14 13:32:51;;;;;;;2.63;0.85;;;19.20;80.60;;;;;;5053990;28;20619;-64
2023/01/14 13:35:40;;;;;;;2.20;1.00;;;19.20;80.60;;;;;;5053336;28;20197;-63
2023/01/14 13:38:31;;;;;;;2.63;0.80;;;19.20;80.70;;;;;;5054030;28;20210;-63
2023/01/14 13:41:43;;;;;;;2.60;1.02;;;19.20;80.70;;;;;;5053688;28;20227;-63
2023/01/14 13:44:34;;;;;;;2.85;0.93;;;19.10;80.70;;;;;;5053257;28;20198;-63
2023/01/14 13:47:28;;;;;;;1.25;1.02;;;19.10;80.80;;;;;;5053546;28;20263;-64
2023/01/14 13:50:22;;;;;;;1.42;0.80;;;19.10;80.80;;;;;;5053432;28;20728;-64
2023/01/14 13:53:26;;;;;;;1.00;0.90;;;19.10;80.90;;;;;;5054062;28;20205;-64
2023/01/14 13:56:22;;;;;;;1.92;0.82;;;18.90;81.10;;;;;;5054968;28;20225;-64
2023/01/14 13:59:18;;;;;;;1.35;0.70;;;18.90;81.30;;;;;;5053325;28;20206;-64
2023/01/14 14:02:39;;;;;;;1.80;0.90;;;18.90;81.40;;;;;;5053601;28;20250;-63
2023/01/14 14:05:31;;;;;;;0.80;0.70;;;18.90;81.50;;;;;;5034451;28;20277;-63
2023/01/14 14:08:26;;;;;;;1.60;1.00;;;19.00;81.50;;;;;;5033828;28;20551;-64
2023/01/14 14:11:20;;;;;;;1.80;0.90;;;18.90;81.50;;;;;;5031964;28;20591;-64
2023/01/14 14:14:16;;;;;;;2.88;0.75;;;18.90;81.50;;;;;;5033688;28;20757;-63
2023/01/14 14:17:06;;;;;;;2.45;1.00;;;19.10;80.80;;;;;;5033177;28;20222;-64
2023/01/14 14:19:56;;;;;;;1.50;1.00;;;19.10;81.30;;;;;;5032863;28;20321;-64
2023/01/14 14:22:48;;;;;;;1.73;0.98;;;19.00;81.10;;;;;;5032967;28;20198;-63
2023/01/14 14:25:39;;;;;;;2.10;0.90;;;19.20;81.10;;;;;;5033202;28;20304;-64
2023/01/14 14:28:31;;;;;;;1.98;1.25;;;19.30;81.10;;;;;;5033866;28;20260;-63
2023/01/14 14:31:24;;;;;;;3.08;1.02;;;19.20;80.90;;;;;;5033100;28;20575;-63
2023/01/14 14:34:20;;;;;;;3.17;1.00;;;19.40;81.10;;;;;;5032483;28;20198;-64
2023/01/14 14:37:20;;;;;;;1.92;0.95;;;19.30;80.70;;;;;;5033496;28;20226;-63
2023/01/14 14:40:17;;;;;;;3.75;0.90;;;19.30;80.70;;;;;;5032682;28;20210;-64
2023/01/14 14:43:06;;;;;;;1.45;0.80;;;19.30;80.50;;;;;;5032928;28;20615;-63
2023/01/14 14:46:03;;;;;;;1.88;1.48;;;19.50;94.70;;;;;;5032416;28;20573;-64
2023/01/14 14:48:52;;;;;;;1.45;1.10;;;19.30;80.50;;;;;;5032467;28;20209;-63
2023/01/14 14:51:45;;;;;;;1.75;0.90;;;19.20;80.50;;;;;;5032620;28;20218;-63
2023/01/14 14:54:36;;;;;;;2.72;1.48;;;19.20;80.50;;;;;;5032597;28;20634;-64
2023/01/14 14:57:27;;;;;;;2.65;0.90;;;19.10;80.30;;;;;;5032217;28;20233;-64
2023/01/14 15:00:18;;;;;;;1.42;1.00;;;19.40;80.70;;;;;;5032294;28;20268;-65
2023/01/14 15:03:07;;;;;;;1.60;1.23;;;19.30;80.80;;;;;;5034291;28;20752;-64
2023/01/14 15:05:56;;;;;;;2.75;0.90;;;19.20;92.50;;;;;;5052260;28;20205;-63
2023/01/14 15:08:48;;;;;;;1.42;0.80;;;19.00;80.60;;;;;;5052608;28;20205;-63
2023/01/14 15:11:43;;;;;;;2.63;0.85;;;19.10;80.80;;;;;;5052205;28;20271;-64
2023/01/14 15:14:34;;;;;;;1.15;0.80;;;19.20;80.90;;;;;;5052193;28;20226;-63
2023/01/14 15:17:22;;;;;;;4.55;1.25;;;19.10;80.90;;;;;;5052143;28;20642;-63
2023/01/14 15:20:15;;;;;;;1.90;0.90;;;19.10;81.00;;;;;;5051941;28;20247;-63
2023/01/14 15:23:04;;;;;;;2.90;0.95;;;19.00;81.20;;;;;;5052185;28;20242;-64
2023/01/14 15:25:53;;;;;;;2.22;1.02;;;19.10;92.90;;;;;;5052843;28;20537;-64
2023/01/14 15:28:41;;;;;;;1.42;0.93;;;18.90;81.60;;;;;;5052392;28;20254;-63
2023/01/14 15:31:32;;;;;;;6.57;1.25;;;18.90;81.60;;;;;;5052192;28;20253;-63